createdAt,value
2023-08-12T00:01:12.321Z,19.00
2023-08-12T00:03:40.462Z,19.00
2023-08-12T00:06:07.351Z,19.00
2023-08-12T00:08:34.081Z,19.00
2023-08-12T00:11:00.925Z,19.00
2023-08-12T00:13:28.719Z,19.00
2023-08-12T00:15:55.610Z,19.00
2023-08-12T00:18:37.686Z,19.00
2023-08-12T00:21:17.752Z,18.90
2023-08-12T00:23:45.478Z,19.00
2023-08-12T00:26:15.044Z,18.90
2023-08-12T00:28:44.074Z,18.90
2023-08-12T00:31:14.904Z,19.00
2023-08-12T00:33:44.560Z,18.80
2023-08-12T00:36:13.953Z,18.90
2023-08-12T00:38:42.638Z,19.00
2023-08-12T00:41:09.475Z,19.00
2023-08-12T00:43:36.193Z,19.00
2023-08-12T00:46:03.699Z,19.00
2023-08-12T00:48:30.523Z,19.00
2023-08-12T00:51:00.123Z,19.10
2023-08-12T00:53:27.056Z,19.20
2023-08-12T00:55:56.166Z,19.20
2023-08-12T00:58:26.984Z,19.30
2023-08-12T01:00:53.879Z,19.40
2023-08-12T01:03:21.205Z,19.40
2023-08-12T01:05:48.133Z,19.50
2023-08-12T01:08:17.670Z,19.50
2023-08-12T01:10:58.169Z,19.50
2023-08-12T01:13:56.148Z,19.60
2023-08-12T01:16:29.459Z,19.60
2023-08-12T01:19:00.877Z,19.70
2023-08-12T01:21:33.225Z,19.80
2023-08-12T01:24:00.095Z,19.80
2023-08-12T01:26:26.911Z,19.90
2023-08-12T01:28:53.813Z,19.80
2023-08-12T01:31:47.351Z,19.80
2023-08-12T01:34:24.823Z,19.80
2023-08-12T01:39:40.552Z,19.90
2023-08-12T01:42:14.704Z,19.90
2023-08-12T01:44:45.563Z,19.90
2023-08-12T01:47:13.038Z,20.00
2023-08-12T01:49:40.051Z,20.00
2023-08-12T01:52:09.811Z,20.00
2023-08-12T01:54:40.619Z,20.10
2023-08-12T01:57:16.250Z,20.10
2023-08-12T01:59:46.116Z,20.20
2023-08-12T02:02:15.900Z,20.20
2023-08-12T02:04:46.466Z,20.30
2023-08-12T02:07:16.153Z,20.40
2023-08-12T02:09:47.084Z,20.50
2023-08-12T02:12:16.199Z,20.60
2023-08-12T02:15:03.308Z,20.60
2023-08-12T02:17:30.053Z,20.70
2023-08-12T02:20:01.039Z,20.70
2023-08-12T02:22:36.612Z,20.70
2023-08-12T02:25:11.832Z,20.70
2023-08-12T02:27:41.237Z,20.80
2023-08-12T02:30:08.579Z,20.80
2023-08-12T02:32:35.308Z,20.80
2023-08-12T02:35:02.035Z,20.90
2023-08-12T02:37:32.096Z,20.90
2023-08-12T02:40:01.086Z,20.90
2023-08-12T02:42:27.803Z,20.90
2023-08-12T02:44:54.494Z,20.90
2023-08-12T02:47:21.174Z,20.80
2023-08-12T02:49:48.707Z,20.80
2023-08-12T02:52:29.143Z,20.80
2023-08-12T02:55:00.330Z,20.90
2023-08-12T02:57:29.939Z,20.90
2023-08-12T02:59:58.686Z,20.90
2023-08-12T03:02:28.550Z,20.90
2023-08-12T03:04:58.322Z,20.90
2023-08-12T03:07:25.021Z,20.90
2023-08-12T03:09:54.644Z,21.00
2023-08-12T03:12:24.142Z,21.00
2023-08-12T03:14:55.878Z,21.10
2023-08-12T03:17:22.685Z,20.70
2023-08-12T03:19:52.636Z,20.60
2023-08-12T03:22:19.376Z,20.50
2023-08-12T03:24:49.663Z,20.30
2023-08-12T03:27:16.463Z,20.20
2023-08-12T03:29:45.867Z,20.20
2023-08-12T03:32:15.557Z,20.20
2023-08-12T03:34:47.100Z,20.20
2023-08-12T03:37:20.439Z,20.20
2023-08-12T03:39:50.004Z,20.10
2023-08-12T03:42:22.833Z,20.10
2023-08-12T03:44:52.270Z,20.20
2023-08-12T03:47:25.639Z,20.20
2023-08-12T03:49:53.713Z,20.20
2023-08-12T03:52:25.955Z,20.20
2023-08-12T03:54:57.952Z,20.20
2023-08-12T03:57:24.774Z,20.20
2023-08-12T03:59:51.494Z,20.20
2023-08-12T04:02:22.841Z,20.10
2023-08-12T04:04:49.701Z,20.20
2023-08-12T04:07:21.730Z,20.20
2023-08-12T04:09:48.469Z,20.20
2023-08-12T04:12:16.789Z,20.20
2023-08-12T04:14:46.327Z,20.20
2023-08-12T04:17:16.142Z,20.20
2023-08-12T04:19:42.896Z,20.20
2023-08-12T04:22:10.939Z,20.30
2023-08-12T04:24:41.045Z,20.30
2023-08-12T04:27:08.254Z,20.30
2023-08-12T04:29:40.099Z,20.40
2023-08-12T04:32:16.159Z,20.40
2023-08-12T04:34:45.679Z,20.40
2023-08-12T04:37:18.306Z,20.40
2023-08-12T04:39:48.593Z,20.40
2023-08-12T04:42:19.973Z,20.30
2023-08-12T04:44:51.856Z,20.30
2023-08-12T04:47:19.841Z,20.20
2023-08-12T04:49:46.531Z,20.20
2023-08-12T04:52:13.319Z,20.10
2023-08-12T04:54:40.094Z,20.10
2023-08-12T04:57:06.843Z,20.20
2023-08-12T04:59:35.115Z,20.10
2023-08-12T05:02:05.227Z,20.20
2023-08-12T05:04:32.406Z,20.20
2023-08-12T05:06:59.137Z,20.20
2023-08-12T05:09:28.348Z,20.20
2023-08-12T05:11:55.046Z,20.30
2023-08-12T05:14:24.292Z,20.30
2023-08-12T05:16:53.214Z,20.30
2023-08-12T05:19:20.029Z,20.30
2023-08-12T05:21:48.660Z,20.30
2023-08-12T05:24:16.455Z,20.30
2023-08-12T05:26:44.839Z,20.30
2023-08-12T05:29:11.566Z,20.30
2023-08-12T05:31:41.285Z,20.30
2023-08-12T05:34:16.196Z,20.20
2023-08-12T05:36:45.637Z,20.20
2023-08-12T05:39:12.373Z,20.20
2023-08-12T05:41:42.415Z,20.10
2023-08-12T05:44:09.221Z,20.20
2023-08-12T05:46:37.189Z,20.20
2023-08-12T05:49:06.721Z,20.20
2023-08-12T05:51:33.410Z,20.30
2023-08-12T05:54:02.921Z,20.20
2023-08-12T05:56:29.637Z,20.30
2023-08-12T05:58:59.475Z,20.50
2023-08-12T06:01:28.923Z,20.80
2023-08-12T06:03:58.727Z,20.80
2023-08-12T06:06:25.518Z,21.20
2023-08-12T06:08:52.324Z,21.40
2023-08-12T06:11:21.012Z,21.50
2023-08-12T06:13:51.833Z,21.70
2023-08-12T06:16:19.947Z,21.80
2023-08-12T06:18:46.773Z,22.00
2023-08-12T06:21:13.490Z,21.90
2023-08-12T06:24:03.234Z,22.10
2023-08-12T06:26:31.252Z,22.30
2023-08-12T06:28:58.072Z,22.30
2023-08-12T06:31:24.904Z,22.30
2023-08-12T06:33:51.687Z,22.20
2023-08-12T06:36:18.421Z,22.30
2023-08-12T06:38:47.893Z,22.40
2023-08-12T06:41:16.183Z,22.50
2023-08-12T06:43:42.928Z,22.70
2023-08-12T06:46:15.460Z,22.60
2023-08-12T06:48:45.173Z,22.60
2023-08-12T06:51:20.586Z,22.70
2023-08-12T06:53:49.943Z,22.90
2023-08-12T06:56:19.454Z,23.30
2023-08-12T06:58:46.308Z,23.40
2023-08-12T07:01:15.920Z,23.60
2023-08-12T07:03:43.099Z,23.70
2023-08-12T07:06:14.978Z,23.80
2023-08-12T07:08:41.604Z,23.90
2023-08-12T07:11:14.175Z,24.10
2023-08-12T07:13:40.964Z,24.40
2023-08-12T07:16:07.820Z,24.40
2023-08-12T07:18:37.494Z,24.50
2023-08-12T07:21:04.721Z,24.60
2023-08-12T07:23:31.486Z,24.70
2023-08-12T07:26:00.948Z,24.60
2023-08-12T07:28:27.696Z,24.70
2023-08-12T07:30:54.599Z,24.70
2023-08-12T07:33:25.696Z,24.60
2023-08-12T07:35:52.551Z,24.70
2023-08-12T07:38:20.523Z,24.50
2023-08-12T07:40:47.306Z,24.40
2023-08-12T07:43:15.040Z,24.30
2023-08-12T07:45:41.765Z,24.30
2023-08-12T07:48:12.406Z,24.50
2023-08-12T07:50:41.265Z,24.10
2023-08-12T07:53:07.967Z,24.30
2023-08-12T07:55:39.229Z,24.40
2023-08-12T07:58:05.989Z,24.40
2023-08-12T08:00:34.794Z,24.90
2023-08-12T08:03:01.629Z,25.10
2023-08-12T08:05:28.701Z,25.40
2023-08-12T08:08:00.466Z,25.20
2023-08-12T08:10:34.075Z,25.30
2023-08-12T08:13:02.033Z,25.40
2023-08-12T08:15:28.913Z,25.60
2023-08-12T08:17:59.542Z,25.60
2023-08-12T08:20:31.959Z,25.50
2023-08-12T08:22:58.847Z,25.50
2023-08-12T08:25:25.571Z,25.50
2023-08-12T08:27:52.376Z,25.40
2023-08-12T08:30:19.357Z,25.00
2023-08-12T08:32:49.998Z,25.00
2023-08-12T08:35:19.294Z,25.00
2023-08-12T08:37:49.092Z,24.80
2023-08-12T08:40:21.468Z,25.00
2023-08-12T08:42:57.124Z,24.90
2023-08-12T08:45:26.717Z,25.20
2023-08-12T08:48:06.217Z,25.60
2023-08-12T08:50:35.382Z,25.60
2023-08-12T08:53:09.001Z,25.80
2023-08-12T08:55:37.136Z,26.00
2023-08-12T08:58:09.760Z,26.20
2023-08-12T09:00:41.363Z,26.20
2023-08-12T09:03:16.663Z,26.20
2023-08-12T09:05:53.876Z,26.10
2023-08-12T09:08:23.511Z,26.10
2023-08-12T09:10:50.514Z,26.10
2023-08-12T09:13:19.439Z,26.00
2023-08-12T09:15:46.213Z,26.20
2023-08-12T09:18:14.383Z,26.20
2023-08-12T09:20:42.351Z,26.30
2023-08-12T09:23:20.085Z,26.40
2023-08-12T09:25:51.226Z,26.50
2023-08-12T09:28:17.988Z,26.40
2023-08-12T09:30:54.186Z,26.40
2023-08-12T09:33:37.033Z,26.40
2023-08-12T09:36:07.891Z,26.10
2023-08-12T09:38:37.873Z,26.30
2023-08-12T09:41:08.658Z,27.20
2023-08-12T09:43:35.455Z,27.70
2023-08-12T09:46:04.234Z,28.20
2023-08-12T09:48:31.160Z,28.10
2023-08-12T09:50:58.154Z,28.30
2023-08-12T09:53:26.556Z,28.80
2023-08-12T09:55:58.475Z,28.40
2023-08-12T09:58:25.544Z,28.40
2023-08-12T10:00:55.105Z,28.10
2023-08-12T10:03:22.460Z,27.90
2023-08-12T10:05:53.719Z,28.20
2023-08-12T10:08:20.864Z,27.70
2023-08-12T10:11:03.046Z,27.80
2023-08-12T10:13:42.350Z,27.40
2023-08-12T10:16:10.972Z,27.30
2023-08-12T10:18:40.098Z,27.20
2023-08-12T10:21:16.398Z,27.10
2023-08-12T10:23:47.663Z,27.20
2023-08-12T10:26:17.679Z,27.10
2023-08-12T10:28:45.093Z,27.10
2023-08-12T10:31:13.441Z,27.00
2023-08-12T10:33:40.708Z,27.10
2023-08-12T10:36:08.440Z,27.30
2023-08-12T10:38:39.164Z,27.60
2023-08-12T10:41:17.303Z,27.80
2023-08-12T10:43:54.053Z,28.40
2023-08-12T10:46:34.274Z,28.90
2023-08-12T10:49:04.066Z,29.00
2023-08-12T10:51:55.440Z,29.30
2023-08-12T10:54:41.124Z,29.30
2023-08-12T10:57:17.350Z,29.00
2023-08-12T10:59:47.449Z,28.80
2023-08-12T11:02:22.110Z,28.40
2023-08-12T11:04:58.793Z,28.10
2023-08-12T11:07:35.267Z,27.70
2023-08-12T11:10:14.270Z,27.20
2023-08-12T11:13:01.784Z,27.20
2023-08-12T11:15:42.402Z,26.90
2023-08-12T11:18:13.664Z,26.30
2023-08-12T11:20:51.115Z,26.10
2023-08-12T11:23:21.876Z,26.20
2023-08-12T11:25:51.645Z,26.70
2023-08-12T11:28:21.355Z,27.00
2023-08-12T11:30:51.280Z,27.20
2023-08-12T11:33:22.002Z,27.30
2023-08-12T11:35:48.869Z,27.30
2023-08-12T11:38:22.401Z,27.40
2023-08-12T11:40:52.498Z,27.20
2023-08-12T11:43:25.640Z,27.10
2023-08-12T11:45:52.366Z,27.50
2023-08-12T11:48:19.196Z,27.40
2023-08-12T11:50:46.232Z,27.10
2023-08-12T11:53:18.217Z,26.90
2023-08-12T11:55:45.038Z,27.10
2023-08-12T11:58:19.646Z,27.40
2023-08-12T12:00:50.482Z,27.70
2023-08-12T12:03:18.332Z,27.20
2023-08-12T12:05:52.683Z,27.00
2023-08-12T12:08:36.610Z,26.90
2023-08-12T12:11:10.093Z,26.80
2023-08-12T12:13:36.875Z,26.50
2023-08-12T12:16:04.216Z,26.40
2023-08-12T12:18:30.911Z,26.50
2023-08-12T12:21:10.473Z,26.70
2023-08-12T12:23:38.757Z,26.70
2023-08-12T12:26:05.627Z,26.80
2023-08-12T12:28:37.387Z,26.40
2023-08-12T12:31:04.120Z,26.20
2023-08-12T12:33:35.556Z,26.30
2023-08-12T12:36:05.233Z,26.50
2023-08-12T12:38:32.427Z,26.70
2023-08-12T12:40:59.194Z,26.70
2023-08-12T12:43:26.081Z,27.60
2023-08-12T12:45:52.879Z,27.80
2023-08-12T12:48:19.602Z,27.70
2023-08-12T12:50:46.450Z,27.60
2023-08-12T12:53:18.439Z,27.60
2023-08-12T12:55:45.464Z,27.80
2023-08-12T12:58:16.212Z,27.30
2023-08-12T13:00:43.120Z,26.90
2023-08-12T13:03:11.921Z,27.40
2023-08-12T13:05:38.717Z,27.90
2023-08-12T13:08:06.001Z,27.80
2023-08-12T13:10:32.742Z,27.90
2023-08-12T13:12:59.523Z,27.90
2023-08-12T13:15:27.810Z,28.50
2023-08-12T13:17:58.647Z,28.80
2023-08-12T13:20:26.757Z,28.80
2023-08-12T13:23:07.970Z,29.20
2023-08-12T13:25:35.649Z,28.90
2023-08-12T13:28:04.416Z,29.10
2023-08-12T13:30:31.418Z,29.10
2023-08-12T13:33:01.165Z,29.10
2023-08-12T13:35:28.611Z,29.30
2023-08-12T13:38:03.127Z,28.90
2023-08-12T13:40:33.396Z,28.70
2023-08-12T13:43:03.053Z,28.80
2023-08-12T13:45:31.381Z,29.00
2023-08-12T13:47:58.235Z,28.40
2023-08-12T13:50:25.180Z,28.50
2023-08-12T13:52:58.523Z,28.10
2023-08-12T13:55:26.028Z,28.00
2023-08-12T13:57:53.594Z,27.80
2023-08-12T14:00:25.373Z,28.00
2023-08-12T14:02:52.589Z,27.40
2023-08-12T14:05:21.617Z,27.40
2023-08-12T14:07:53.948Z,27.60
2023-08-12T14:10:29.786Z,27.70
2023-08-12T14:12:56.556Z,27.40
2023-08-12T14:15:24.561Z,27.60
2023-08-12T14:17:51.385Z,27.30
2023-08-12T14:20:19.009Z,27.10
2023-08-12T14:22:50.692Z,27.70
2023-08-12T14:25:18.740Z,27.60
2023-08-12T14:27:54.549Z,27.40
2023-08-12T14:30:30.308Z,27.40
2023-08-12T14:32:58.734Z,27.30
2023-08-12T14:35:26.241Z,26.80
2023-08-12T14:37:55.638Z,26.40
2023-08-12T14:40:26.654Z,26.00
2023-08-12T14:42:53.389Z,25.70
2023-08-12T14:45:22.730Z,25.70
2023-08-12T14:48:01.707Z,25.70
2023-08-12T14:50:30.600Z,25.50
2023-08-12T14:53:02.951Z,25.40
2023-08-12T14:55:29.701Z,25.20
2023-08-12T14:57:58.383Z,25.20
2023-08-12T15:00:27.907Z,25.00
2023-08-12T15:02:54.785Z,24.80
2023-08-12T15:05:21.664Z,24.90
2023-08-12T15:07:51.366Z,24.80
2023-08-12T15:10:18.152Z,24.60
2023-08-12T15:12:50.595Z,24.50
2023-08-12T15:15:19.296Z,24.50
2023-08-12T15:17:46.173Z,24.40
2023-08-12T15:20:12.959Z,24.00
2023-08-12T15:22:42.339Z,23.90
2023-08-12T15:25:09.621Z,23.60
2023-08-12T15:27:39.551Z,23.50
2023-08-12T15:30:06.844Z,23.20
2023-08-12T15:32:36.639Z,23.00
2023-08-12T15:35:03.518Z,22.80
2023-08-12T15:37:31.604Z,22.50
2023-08-12T15:40:01.449Z,22.40
2023-08-12T15:42:28.190Z,22.30
2023-08-12T15:44:57.835Z,22.20
2023-08-12T15:47:24.599Z,22.20
2023-08-12T15:49:51.704Z,22.10
2023-08-12T15:52:21.409Z,22.00
2023-08-12T15:54:53.103Z,21.90
2023-08-12T15:57:20.471Z,21.70
2023-08-12T15:59:50.449Z,21.70
2023-08-12T16:02:22.585Z,21.60
2023-08-12T16:04:49.990Z,21.40
2023-08-12T16:07:19.365Z,21.30
2023-08-12T16:09:46.547Z,21.40
2023-08-12T16:12:14.786Z,21.30
2023-08-12T16:14:41.839Z,21.30
2023-08-12T16:17:11.490Z,21.20
2023-08-12T16:19:38.409Z,21.20
2023-08-12T16:22:05.327Z,21.20
2023-08-12T16:24:32.172Z,21.20
2023-08-12T16:27:00.443Z,21.20
2023-08-12T16:29:36.081Z,21.10
2023-08-12T16:32:03.960Z,21.10
2023-08-12T16:34:30.749Z,21.10
2023-08-12T16:37:14.697Z,21.20
2023-08-12T16:39:45.872Z,21.20
2023-08-12T16:42:13.002Z,21.40
2023-08-12T16:44:44.999Z,21.50
2023-08-12T16:47:11.674Z,21.70
2023-08-12T16:49:39.603Z,22.20
2023-08-12T16:52:08.393Z,22.70
2023-08-12T16:54:36.361Z,23.10
2023-08-12T16:57:03.122Z,23.60
2023-08-12T16:59:29.895Z,23.90
2023-08-12T17:01:56.649Z,23.90
2023-08-12T17:04:23.419Z,24.20
2023-08-12T17:06:50.127Z,24.60
2023-08-12T17:09:18.008Z,24.70
2023-08-12T17:11:45.158Z,24.70
2023-08-12T17:14:12.582Z,24.70
2023-08-12T17:16:39.770Z,24.90
2023-08-12T17:19:29.737Z,24.90
2023-08-12T17:21:59.277Z,24.90
2023-08-12T17:24:26.213Z,24.40
2023-08-12T17:26:55.085Z,23.90
2023-08-12T17:29:21.760Z,23.50
2023-08-12T17:31:48.623Z,23.40
2023-08-12T17:34:16.872Z,23.10
2023-08-12T17:36:43.792Z,23.00
2023-08-12T17:39:15.465Z,22.90
2023-08-12T17:41:47.629Z,22.80
2023-08-12T17:44:17.063Z,22.80
2023-08-12T17:46:44.756Z,22.80
2023-08-12T17:49:16.126Z,22.80
2023-08-12T17:51:44.121Z,22.90
2023-08-12T17:54:10.833Z,23.00
2023-08-12T17:56:40.324Z,22.90
2023-08-12T17:59:08.622Z,22.90
2023-08-12T18:01:35.291Z,22.70
2023-08-12T18:04:02.173Z,22.60
2023-08-12T18:06:31.909Z,22.50
2023-08-12T18:09:05.779Z,22.40
2023-08-12T18:11:34.093Z,22.30
2023-08-12T18:14:03.822Z,22.00
2023-08-12T18:16:31.917Z,21.80
2023-08-12T18:19:01.620Z,21.70
2023-08-12T18:21:31.319Z,21.60
2023-08-12T18:23:58.186Z,21.50
2023-08-12T18:26:24.980Z,21.40
2023-08-12T18:29:07.032Z,21.30
2023-08-12T18:31:33.835Z,21.20
2023-08-12T18:34:00.595Z,21.20
2023-08-12T18:36:27.322Z,21.10
2023-08-12T18:38:54.185Z,21.10
2023-08-12T18:41:20.942Z,21.00
2023-08-12T18:43:47.694Z,20.90
2023-08-12T18:46:14.421Z,20.80
2023-08-12T18:48:41.268Z,20.80
2023-08-12T18:51:08.006Z,20.70
2023-08-12T18:53:38.749Z,20.70
2023-08-12T18:56:08.432Z,20.60
2023-08-12T18:58:38.147Z,20.60
2023-08-12T19:01:05.416Z,20.50
2023-08-12T19:03:34.221Z,20.50
2023-08-12T19:06:01.641Z,20.40
2023-08-12T19:08:28.507Z,20.40
2023-08-12T19:11:00.444Z,20.30
2023-08-12T19:13:27.725Z,20.30
2023-08-12T19:15:58.068Z,20.20
2023-08-12T19:18:27.320Z,20.20
2023-08-12T19:20:58.265Z,20.10
2023-08-12T19:23:27.953Z,20.10
2023-08-12T19:25:57.159Z,20.20
2023-08-12T19:28:25.393Z,20.20
2023-08-12T19:30:58.211Z,20.30
2023-08-12T19:33:31.503Z,20.30
2023-08-12T19:35:58.237Z,20.30
2023-08-12T19:38:26.222Z,20.40
2023-08-12T19:40:53.018Z,20.40
2023-08-12T19:43:22.223Z,20.40
2023-08-12T19:45:51.143Z,20.40
2023-08-12T19:48:20.633Z,20.40
2023-08-12T19:50:48.043Z,20.40
2023-08-12T19:53:14.917Z,20.40
2023-08-12T19:55:41.712Z,20.20
2023-08-12T19:58:14.992Z,20.20
2023-08-12T20:00:43.570Z,20.10
2023-08-12T20:03:11.699Z,20.00
2023-08-12T20:05:39.645Z,20.00
2023-08-12T20:08:06.773Z,19.90
2023-08-12T20:10:33.462Z,20.00
2023-08-12T20:13:13.754Z,19.90
2023-08-12T20:15:43.328Z,20.00
2023-08-12T20:18:24.342Z,20.10
2023-08-12T20:20:54.948Z,20.10
2023-08-12T20:23:25.305Z,20.20
2023-08-12T20:26:05.754Z,20.20
2023-08-12T20:28:34.162Z,20.30
2023-08-12T20:31:00.982Z,20.30
2023-08-12T20:33:27.797Z,20.40
2023-08-12T20:35:54.641Z,20.50
2023-08-12T20:38:21.377Z,20.50
2023-08-12T20:40:51.009Z,20.50
2023-08-12T20:43:20.814Z,20.50
2023-08-12T20:45:47.543Z,20.50
2023-08-12T20:48:14.695Z,20.50
2023-08-12T20:50:44.412Z,20.50
2023-08-12T20:53:11.297Z,20.50
2023-08-12T20:55:42.033Z,20.50
2023-08-12T20:58:13.011Z,20.50
2023-08-12T21:00:40.668Z,20.50
2023-08-12T21:03:10.882Z,20.40
2023-08-12T21:05:46.146Z,20.40
2023-08-12T21:08:12.952Z,20.40
2023-08-12T21:10:39.690Z,20.40
2023-08-12T21:13:06.497Z,20.40
2023-08-12T21:15:33.310Z,20.40
2023-08-12T21:18:00.716Z,20.30
2023-08-12T21:20:32.829Z,20.30
2023-08-12T21:22:59.569Z,20.30
2023-08-12T21:25:30.601Z,20.40
2023-08-12T21:28:00.220Z,20.30
2023-08-12T21:30:28.963Z,20.30
2023-08-12T21:32:55.838Z,20.30
2023-08-12T21:35:25.572Z,20.30
2023-08-12T21:37:52.257Z,20.20
2023-08-12T21:40:18.985Z,20.20
2023-08-12T21:42:45.786Z,20.20
2023-08-12T21:45:20.244Z,20.20
2023-08-12T21:47:49.874Z,20.20
2023-08-12T21:50:16.846Z,20.20
2023-08-12T21:52:46.318Z,20.20
2023-08-12T21:55:16.147Z,20.10
2023-08-12T21:57:45.127Z,20.00
2023-08-12T22:00:16.486Z,20.10
2023-08-12T22:02:48.691Z,20.00
2023-08-12T22:05:15.695Z,20.00
2023-08-12T22:07:48.231Z,20.00
2023-08-12T22:10:14.991Z,19.90
2023-08-12T22:12:42.359Z,19.90
2023-08-12T22:15:12.435Z,19.70
2023-08-12T22:17:41.096Z,19.70
2023-08-12T22:20:11.545Z,19.60
2023-08-12T22:22:38.308Z,19.50
2023-08-12T22:25:05.364Z,19.40
2023-08-12T22:27:35.184Z,19.30
2023-08-12T22:30:08.460Z,19.20
2023-08-12T22:32:35.155Z,19.10
2023-08-12T22:35:07.064Z,19.10
2023-08-12T22:37:35.556Z,19.00
2023-08-12T22:40:05.122Z,18.90
2023-08-12T22:42:37.439Z,18.90
2023-08-12T22:45:06.756Z,18.90
2023-08-12T22:47:33.502Z,18.80
2023-08-12T22:50:01.556Z,18.70
2023-08-12T22:52:28.343Z,18.70
2023-08-12T22:54:55.211Z,18.60
2023-08-12T22:57:25.179Z,18.60
2023-08-12T22:59:52.901Z,18.60
2023-08-12T23:02:22.129Z,18.60
2023-08-12T23:04:49.029Z,18.50
2023-08-12T23:07:15.782Z,18.50
2023-08-12T23:09:43.538Z,18.40
2023-08-12T23:12:10.461Z,18.40
2023-08-12T23:14:40.024Z,18.40
2023-08-12T23:17:06.705Z,18.30
2023-08-12T23:19:36.227Z,18.20
2023-08-12T23:22:03.182Z,18.20
2023-08-12T23:24:30.034Z,18.20
2023-08-12T23:26:58.714Z,18.10
2023-08-12T23:29:25.492Z,18.10
2023-08-12T23:31:55.093Z,18.10
2023-08-12T23:34:23.948Z,18.10
2023-08-12T23:36:53.496Z,18.10
2023-08-12T23:39:23.880Z,18.00
2023-08-12T23:41:50.779Z,18.00
2023-08-12T23:44:18.739Z,18.10
2023-08-12T23:46:50.848Z,18.10
2023-08-12T23:49:17.598Z,18.10
2023-08-12T23:51:47.159Z,18.10
2023-08-12T23:54:16.569Z,18.00
2023-08-12T23:56:43.554Z,18.00
2023-08-12T23:59:15.234Z,17.90
